Time;durP1;ratioP1;P1;durP2;ratioP2;P2;SDS_P1;SDS_P2;PMS_P1;PMS_P2;Temp;Humidity;BMP_temperature;BMP_pressure;BME280_temperature;BME280_humidity;BME280_pressure;Samples;Min_cycle;Max_cycle;Signal;HPM_P1;HPM_P2
2021/12/30 00:00:45;;;;;;;1.13;0.40;;;;;;;;;;4953639;28;20055;-69
2021/12/30 00:03:12;;;;;;;1.77;0.38;;;;;;;;;;4953632;28;20058;-68
2021/12/30 00:05:39;;;;;;;1.55;0.50;;;;;;;;;;4953613;28;20055;-69
2021/12/30 00:08:06;;;;;;;0.70;0.32;;;;;;;;;;4953691;28;20118;-69
2021/12/30 00:10:33;;;;;;;0.45;0.30;;;;;;;;;;4953606;28;20121;-68
2021/12/30 00:13:00;;;;;;;1.20;0.40;;;;;;;;;;4973401;28;20082;-69
2021/12/30 00:15:27;;;;;;;0.60;0.60;;;;;;;;;;4972866;28;20051;-68
2021/12/30 00:17:53;;;;;;;0.77;0.60;;;;;;;;;;4972862;28;20105;-68
2021/12/30 00:20:20;;;;;;;3.15;1.20;;;;;;;;;;4973114;28;20058;-68
2021/12/30 00:22:47;;;;;;;1.23;0.75;;;;;;;;;;4972610;28;20548;-68
2021/12/30 00:25:15;;;;;;;2.00;1.17;;;;;;;;;;4972770;28;20081;-68
2021/12/30 00:27:41;;;;;;;1.13;0.70;;;;;;;;;;4972657;28;20097;-68
2021/12/30 00:30:10;;;;;;;0.85;0.30;;;;;;;;;;4971962;28;20426;-68
2021/12/30 00:32:36;;;;;;;1.48;0.60;;;;;;;;;;4972465;28;20051;-68
2021/12/30 00:35:08;;;;;;;0.47;0.40;;;;;;;;;;4972233;28;20138;-68
2021/12/30 00:37:34;;;;;;;0.68;0.57;;;;;;;;;;4972595;28;20055;-68
2021/12/30 00:40:01;;;;;;;1.27;0.60;;;;;;;;;;4972748;28;20109;-69
2021/12/30 00:42:28;;;;;;;0.50;0.40;;;;;;;;;;4972630;28;20055;-69
2021/12/30 00:44:54;;;;;;;0.45;0.43;;;;;;;;;;4976334;28;20043;-69
2021/12/30 00:47:21;;;;;;;1.48;0.80;;;;;;;;;;4971227;28;20051;-68
2021/12/30 00:49:47;;;;;;;1.10;0.50;;;;;;;;;;4956897;28;20118;-69
2021/12/30 00:52:14;;;;;;;1.05;0.80;;;;;;;;;;4956935;28;20051;-68
2021/12/30 00:54:40;;;;;;;1.35;0.60;;;;;;;;;;4956717;28;20043;-68
2021/12/30 00:57:07;;;;;;;1.25;0.70;;;;;;;;;;4956949;28;20477;-68
2021/12/30 00:59:34;;;;;;;1.55;0.73;;;;;;;;;;4963126;28;20490;-68
2021/12/30 01:02:00;;;;;;;0.55;0.55;;;;;;;;;;4976077;28;20074;-68
2021/12/30 01:04:27;;;;;;;1.85;0.55;;;;;;;;;;4977811;28;20082;-69
2021/12/30 01:06:54;;;;;;;1.60;0.50;;;;;;;;;;4976246;28;20054;-69
2021/12/30 01:09:20;;;;;;;1.85;0.50;;;;;;;;;;4975805;28;20563;-69
2021/12/30 01:11:48;;;;;;;1.40;0.68;;;;;;;;;;4975940;28;20162;-68
2021/12/30 01:14:19;;;;;;;1.52;0.82;;;;;;;;;;4975778;28;20113;-68
2021/12/30 01:16:49;;;;;;;2.17;0.50;;;;;;;;;;4975958;28;20055;-68
2021/12/30 01:21:52;;;;;;;1.77;0.60;;;;;;;;;;4975972;28;20054;-69
2021/12/30 01:24:19;;;;;;;1.10;0.40;;;;;;;;;;4975204;28;20043;-68
2021/12/30 01:26:46;;;;;;;1.70;0.60;;;;;;;;;;4975666;28;20085;-69
2021/12/30 01:29:14;;;;;;;1.15;0.57;;;;;;;;;;4975668;28;20051;-69
2021/12/30 01:31:41;;;;;;;2.28;0.60;;;;;;;;;;4975538;28;20416;-69
2021/12/30 01:34:19;;;;;;;2.30;0.45;;;;;;;;;;4975459;28;20057;-68
2021/12/30 01:36:46;;;;;;;1.48;0.63;;;;;;;;;;4975420;28;20050;-68
2021/12/30 01:39:13;;;;;;;2.00;0.60;;;;;;;;;;4975379;28;20494;-68
2021/12/30 01:41:41;;;;;;;0.30;0.30;;;;;;;;;;4975385;28;20054;-68
2021/12/30 01:44:07;;;;;;;0.55;0.40;;;;;;;;;;4975348;28;20414;-68
2021/12/30 01:46:39;;;;;;;0.40;0.40;;;;;;;;;;4975254;28;20050;-68
2021/12/30 01:49:07;;;;;;;1.83;0.80;;;;;;;;;;4975376;28;20050;-69
2021/12/30 01:51:34;;;;;;;4.13;0.77;;;;;;;;;;4975215;28;20121;-68
2021/12/30 01:54:00;;;;;;;8.15;3.45;;;;;;;;;;4974991;28;20561;-69
2021/12/30 01:56:28;;;;;;;4.18;1.05;;;;;;;;;;4974443;28;20105;-69
2021/12/30 01:58:55;;;;;;;2.78;1.20;;;;;;;;;;4973950;28;20055;-68
2021/12/30 02:01:23;;;;;;;2.10;0.45;;;;;;;;;;4975027;28;20101;-69
2021/12/30 02:03:50;;;;;;;1.13;0.40;;;;;;;;;;4974858;28;20050;-69
2021/12/30 02:06:17;;;;;;;4.22;1.00;;;;;;;;;;4973893;28;20050;-69
2021/12/30 02:08:43;;;;;;;3.03;0.80;;;;;;;;;;4974769;28;20123;-69
2021/12/30 02:11:10;;;;;;;0.50;0.40;;;;;;;;;;4974840;28;20054;-69
2021/12/30 02:13:37;;;;;;;2.35;1.13;;;;;;;;;;4975206;28;20473;-69
2021/12/30 02:16:03;;;;;;;0.75;0.40;;;;;;;;;;4974848;28;20490;-69
2021/12/30 02:18:31;;;;;;;1.25;0.60;;;;;;;;;;4974933;28;20050;-69
2021/12/30 02:21:01;;;;;;;2.90;0.80;;;;;;;;;;4974603;28;20054;-69
2021/12/30 02:23:30;;;;;;;3.00;0.52;;;;;;;;;;4973917;28;20050;-69
2021/12/30 02:25:59;;;;;;;2.53;0.70;;;;;;;;;;4974677;28;20101;-68
2021/12/30 02:28:29;;;;;;;3.28;1.13;;;;;;;;;;4974676;28;20051;-69
2021/12/30 02:30:57;;;;;;;2.88;0.68;;;;;;;;;;4974676;28;20055;-69
2021/12/30 02:33:24;;;;;;;2.03;0.60;;;;;;;;;;4974252;28;20105;-68
2021/12/30 02:35:51;;;;;;;2.58;0.60;;;;;;;;;;4974536;28;20505;-68
2021/12/30 02:38:18;;;;;;;1.08;0.55;;;;;;;;;;4974455;28;20054;-68
2021/12/30 02:40:50;;;;;;;2.88;0.60;;;;;;;;;;4974196;28;20117;-68
2021/12/30 02:43:28;;;;;;;1.35;0.40;;;;;;;;;;4974184;28;20046;-68
2021/12/30 02:45:55;;;;;;;0.93;0.40;;;;;;;;;;4974319;28;20050;-68
2021/12/30 02:48:24;;;;;;;0.93;0.52;;;;;;;;;;4974198;28;20051;-69
2021/12/30 02:50:55;;;;;;;1.70;0.47;;;;;;;;;;4974118;28;20097;-68
2021/12/30 02:53:22;;;;;;;0.50;0.30;;;;;;;;;;4968112;28;20106;-68
2021/12/30 02:55:51;;;;;;;0.95;0.40;;;;;;;;;;4954784;28;20051;-69
2021/12/30 02:58:17;;;;;;;0.80;0.80;;;;;;;;;;4954653;28;20048;-68
2021/12/30 03:00:45;;;;;;;1.50;0.38;;;;;;;;;;4954544;28;20051;-68
2021/12/30 03:03:22;;;;;;;2.13;0.50;;;;;;;;;;4958709;28;20046;-68
2021/12/30 03:05:54;;;;;;;1.73;0.63;;;;;;;;;;4973848;28;20406;-68
2021/12/30 03:08:20;;;;;;;1.35;0.60;;;;;;;;;;4974053;28;20090;-69
2021/12/30 03:10:47;;;;;;;3.15;0.60;;;;;;;;;;4997166;23;20046;-66
2021/12/30 03:13:15;;;;;;;2.25;0.50;;;;;;;;;;4971554;28;20059;-68
2021/12/30 03:15:44;;;;;;;2.45;0.52;;;;;;;;;;4973458;28;20047;-68
2021/12/30 03:18:11;;;;;;;1.15;0.32;;;;;;;;;;4970112;28;20051;-68
2021/12/30 03:20:37;;;;;;;1.20;0.50;;;;;;;;;;4954625;28;20055;-69
2021/12/30 03:23:04;;;;;;;1.30;0.43;;;;;;;;;;4954436;28;20067;-68
2021/12/30 03:25:31;;;;;;;0.95;0.40;;;;;;;;;;4954512;28;20171;-69
2021/12/30 03:27:57;;;;;;;2.88;0.38;;;;;;;;;;4953219;29;20055;-68
2021/12/30 03:30:24;;;;;;;1.75;1.00;;;;;;;;;;4954107;28;20560;-68
2021/12/30 03:32:51;;;;;;;1.27;0.50;;;;;;;;;;4953940;28;20055;-69
2021/12/30 03:35:18;;;;;;;0.90;0.30;;;;;;;;;;4954295;28;20047;-69
2021/12/30 03:37:44;;;;;;;1.60;0.50;;;;;;;;;;4954199;28;20075;-67
2021/12/30 03:40:14;;;;;;;2.63;0.50;;;;;;;;;;4954317;28;20469;-68
2021/12/30 03:42:41;;;;;;;2.88;1.00;;;;;;;;;;4953776;28;20107;-68
2021/12/30 03:45:09;;;;;;;0.30;0.30;;;;;;;;;;4954126;28;20047;-68
2021/12/30 03:47:39;;;;;;;2.17;0.30;;;;;;;;;;4953957;28;20102;-69
2021/12/30 03:50:08;;;;;;;3.88;0.50;;;;;;;;;;4954162;28;20082;-69
2021/12/30 03:52:34;;;;;;;0.95;0.40;;;;;;;;;;4954120;28;20055;-69
2021/12/30 03:55:01;;;;;;;0.52;0.35;;;;;;;;;;4953900;28;20487;-69
2021/12/30 03:57:28;;;;;;;0.85;0.30;;;;;;;;;;4954096;28;20047;-69
2021/12/30 03:59:54;;;;;;;0.75;0.55;;;;;;;;;;4953934;28;20087;-68
2021/12/30 04:02:21;;;;;;;4.25;0.60;;;;;;;;;;4953631;28;20506;-68
2021/12/30 04:04:47;;;;;;;1.15;0.40;;;;;;;;;;4953516;28;20140;-68
2021/12/30 04:07:14;;;;;;;0.93;0.47;;;;;;;;;;4953689;28;20051;-67
2021/12/30 04:09:42;;;;;;;0.38;0.38;;;;;;;;;;4953588;28;20118;-69
2021/12/30 04:12:09;;;;;;;1.38;0.40;;;;;;;;;;4953647;28;20059;-69
2021/12/30 04:14:36;;;;;;;0.60;0.30;;;;;;;;;;4952080;29;20561;-68
2021/12/30 04:17:03;;;;;;;0.47;0.30;;;;;;;;;;4953612;28;20051;-69
2021/12/30 04:19:30;;;;;;;2.15;0.45;;;;;;;;;;4956457;28;20449;-68
2021/12/30 04:21:58;;;;;;;0.75;0.30;;;;;;;;;;4957601;28;20047;-68
2021/12/30 04:24:25;;;;;;;1.55;0.60;;;;;;;;;;4957473;28;20055;-70
2021/12/30 04:26:51;;;;;;;2.08;0.95;;;;;;;;;;4957387;28;20051;-68
2021/12/30 04:29:18;;;;;;;1.88;0.60;;;;;;;;;;4957356;28;20557;-69
2021/12/30 04:31:46;;;;;;;0.22;0.20;;;;;;;;;;4957337;28;20055;-67
2021/12/30 04:34:13;;;;;;;0.95;0.45;;;;;;;;;;4957196;28;20486;-68
2021/12/30 04:36:40;;;;;;;0.85;0.60;;;;;;;;;;4956001;29;20051;-67
2021/12/30 04:39:07;;;;;;;1.00;0.38;;;;;;;;;;4957326;28;20051;-69
2021/12/30 04:41:34;;;;;;;2.25;0.60;;;;;;;;;;4957162;28;20130;-69
2021/12/30 04:44:01;;;;;;;3.22;1.25;;;;;;;;;;4957159;28;20122;-69
2021/12/30 04:46:28;;;;;;;2.13;0.60;;;;;;;;;;4970409;28;20072;-68
2021/12/30 04:48:55;;;;;;;1.58;0.70;;;;;;;;;;4957936;28;20087;-69
2021/12/30 04:51:21;;;;;;;1.05;0.47;;;;;;;;;;4976306;28;20124;-69
2021/12/30 04:53:50;;;;;;;0.80;0.50;;;;;;;;;;4975864;28;20050;-70
2021/12/30 04:56:18;;;;;;;2.15;0.45;;;;;;;;;;4976457;28;20054;-70
2021/12/30 04:58:44;;;;;;;1.25;0.57;;;;;;;;;;4975530;28;20075;-69
2021/12/30 05:01:11;;;;;;;1.45;0.47;;;;;;;;;;4956816;28;20102;-69
2021/12/30 05:03:39;;;;;;;2.10;0.47;;;;;;;;;;4956610;28;20498;-69
2021/12/30 05:06:05;;;;;;;1.17;0.63;;;;;;;;;;4956944;28;20094;-69
2021/12/30 05:08:32;;;;;;;2.83;0.70;;;;;;;;;;4971573;28;20059;-69
2021/12/30 05:11:00;;;;;;;3.15;1.90;;;;;;;;;;4975919;28;20106;-67
2021/12/30 05:13:26;;;;;;;2.80;2.60;;;;;;;;;;4975918;28;20473;-68
2021/12/30 05:15:53;;;;;;;2.28;1.42;;;;;;;;;;4975903;28;20050;-68
2021/12/30 05:18:24;;;;;;;3.92;1.40;;;;;;;;;;4975623;28;20059;-68
2021/12/30 05:20:50;;;;;;;2.97;2.10;;;;;;;;;;4975940;28;20051;-68
2021/12/30 05:23:17;;;;;;;1.90;1.75;;;;;;;;;;4975751;28;20054;-68
2021/12/30 05:25:43;;;;;;;1.92;1.35;;;;;;;;;;4974487;28;20043;-68
2021/12/30 05:28:10;;;;;;;2.45;2.00;;;;;;;;;;4963937;28;20055;-68
2021/12/30 05:30:37;;;;;;;2.78;2.38;;;;;;;;;;4954828;28;20569;-69
2021/12/30 05:33:03;;;;;;;10.55;7.95;;;;;;;;;;4956404;28;20047;-68
2021/12/30 05:35:30;;;;;;;7.57;6.88;;;;;;;;;;4956225;28;20047;-69
2021/12/30 05:37:57;;;;;;;2.92;1.90;;;;;;;;;;4956323;28;20055;-69
2021/12/30 05:40:24;;;;;;;4.13;1.23;;;;;;;;;;4956297;28;20047;-68
2021/12/30 05:42:50;;;;;;;1.08;0.98;;;;;;;;;;4955879;28;20059;-69
2021/12/30 05:45:17;;;;;;;1.85;1.10;;;;;;;;;;4956091;28;20048;-68
2021/12/30 05:47:47;;;;;;;1.45;0.70;;;;;;;;;;4955911;28;20426;-68
2021/12/30 05:50:18;;;;;;;2.25;0.77;;;;;;;;;;4956146;28;20106;-69
2021/12/30 05:52:46;;;;;;;1.23;0.32;;;;;;;;;;4955666;28;20110;-68
2021/12/30 05:55:13;;;;;;;0.85;0.50;;;;;;;;;;4955820;28;20083;-68
2021/12/30 05:57:40;;;;;;;3.05;0.80;;;;;;;;;;4954661;29;20051;-68
2021/12/30 06:00:09;;;;;;;2.08;1.98;;;;;;;;;;4956905;28;20102;-69
2021/12/30 06:02:35;;;;;;;1.23;0.90;;;;;;;;;;4974758;28;20078;-69
2021/12/30 06:05:03;;;;;;;3.13;1.58;;;;;;;;;;4975223;28;20078;-69
2021/12/30 06:07:29;;;;;;;2.67;2.42;;;;;;;;;;4968235;28;20462;-70
2021/12/30 06:09:56;;;;;;;1.15;1.05;;;;;;;;;;4955822;28;20117;-69
2021/12/30 06:12:23;;;;;;;0.85;0.77;;;;;;;;;;4955544;28;20051;-69
2021/12/30 06:14:49;;;;;;;0.38;0.38;;;;;;;;;;4955368;29;20047;-69
2021/12/30 06:17:16;;;;;;;0.55;0.55;;;;;;;;;;4955650;29;20051;-69
2021/12/30 06:19:43;;;;;;;1.45;0.40;;;;;;;;;;4955421;28;20055;-68
2021/12/30 06:22:10;;;;;;;0.60;0.30;;;;;;;;;;4955423;28;20098;-68
2021/12/30 06:24:37;;;;;;;0.80;0.35;;;;;;;;;;4955069;28;20079;-68
2021/12/30 06:27:04;;;;;;;1.10;0.50;;;;;;;;;;4956974;28;20114;-68
2021/12/30 06:29:30;;;;;;;1.08;0.52;;;;;;;;;;4974432;28;20051;-68
2021/12/30 06:31:57;;;;;;;2.17;0.60;;;;;;;;;;4974554;28;20058;-67
2021/12/30 06:34:23;;;;;;;0.95;0.50;;;;;;;;;;4974524;28;20556;-68
2021/12/30 06:36:50;;;;;;;1.13;0.50;;;;;;;;;;4955772;28;20055;-68
2021/12/30 06:39:17;;;;;;;0.50;0.30;;;;;;;;;;4955106;28;20055;-69
2021/12/30 06:41:44;;;;;;;0.60;0.60;;;;;;;;;;4954487;28;20118;-68
2021/12/30 06:44:10;;;;;;;4.57;0.57;;;;;;;;;;4954934;28;20051;-69
2021/12/30 06:46:37;;;;;;;1.20;0.35;;;;;;;;;;4969655;28;20046;-69
2021/12/30 06:49:08;;;;;;;0.73;0.60;;;;;;;;;;4974274;28;20058;-68
2021/12/30 06:51:35;;;;;;;0.77;0.40;;;;;;;;;;4974144;28;20109;-68
2021/12/30 06:54:03;;;;;;;1.13;0.50;;;;;;;;;;4973962;28;20050;-69
2021/12/30 06:56:30;;;;;;;2.35;0.55;;;;;;;;;;4972833;28;20501;-68
2021/12/30 06:58:56;;;;;;;1.95;0.68;;;;;;;;;;4973974;28;20113;-68
2021/12/30 07:01:23;;;;;;;0.82;0.50;;;;;;;;;;4972831;28;20502;-68
2021/12/30 07:03:50;;;;;;;1.55;0.60;;;;;;;;;;4973939;28;20054;-69
2021/12/30 07:06:17;;;;;;;2.25;0.98;;;;;;;;;;4973929;28;20070;-68
2021/12/30 07:08:43;;;;;;;1.52;0.30;;;;;;;;;;4969213;28;20051;-68
2021/12/30 07:11:10;;;;;;;0.75;0.47;;;;;;;;;;4972636;28;20050;-68
2021/12/30 07:13:36;;;;;;;0.40;0.40;;;;;;;;;;4973661;28;20050;-69
2021/12/30 07:16:03;;;;;;;0.25;0.22;;;;;;;;;;4973822;28;20094;-68
2021/12/30 07:18:30;;;;;;;0.40;0.40;;;;;;;;;;4973669;28;20054;-67
2021/12/30 07:20:57;;;;;;;2.58;0.50;;;;;;;;;;4969989;28;20461;-68
2021/12/30 07:23:23;;;;;;;0.43;0.32;;;;;;;;;;4956365;28;20462;-68
2021/12/30 07:25:50;;;;;;;1.35;0.30;;;;;;;;;;4954262;28;20082;-69
2021/12/30 07:28:17;;;;;;;5.95;2.03;;;;;;;;;;4954567;28;20490;-67
2021/12/30 07:30:43;;;;;;;4.75;2.15;;;;;;;;;;4954155;28;20098;-67
2021/12/30 07:33:10;;;;;;;7.15;4.07;;;;;;;;;;4960300;28;20054;-70
2021/12/30 07:35:37;;;;;;;1.83;1.02;;;;;;;;;;4967029;28;20074;-65
2021/12/30 07:38:04;;;;;;;1.65;1.30;;;;;;;;;;4964059;28;20510;-67
2021/12/30 07:40:32;;;;;;;3.88;1.55;;;;;;;;;;4960704;28;20082;-68
2021/12/30 07:42:58;;;;;;;0.82;0.80;;;;;;;;;;4958880;28;20046;-67
2021/12/30 07:45:25;;;;;;;1.55;1.42;;;;;;;;;;4963201;28;20101;-66
2021/12/30 07:47:53;;;;;;;2.55;0.80;;;;;;;;;;4957642;28;20062;-66
2021/12/30 07:50:21;;;;;;;1.20;0.88;;;;;;;;;;4960055;28;20102;-66
2021/12/30 07:52:48;;;;;;;1.02;0.50;;;;;;;;;;4960116;28;20054;-66
2021/12/30 07:55:15;;;;;;;2.15;0.60;;;;;;;;;;4973031;28;20046;-67
2021/12/30 07:57:43;;;;;;;0.65;0.50;;;;;;;;;;4957605;28;20466;-66
2021/12/30 08:00:12;;;;;;;0.82;0.50;;;;;;;;;;4957701;28;20055;-66
2021/12/30 08:02:42;;;;;;;1.58;0.30;;;;;;;;;;4961285;28;20055;-66
2021/12/30 08:05:16;;;;;;;0.70;0.40;;;;;;;;;;4958535;28;20502;-67
2021/12/30 08:07:45;;;;;;;1.33;0.50;;;;;;;;;;4961675;28;20057;-66
2021/12/30 08:10:14;;;;;;;0.90;0.45;;;;;;;;;;4959423;28;20569;-67
2021/12/30 08:12:42;;;;;;;0.82;0.40;;;;;;;;;;4959090;28;20481;-66
2021/12/30 08:15:10;;;;;;;1.27;0.40;;;;;;;;;;4959988;28;20043;-66
2021/12/30 08:17:37;;;;;;;2.40;0.52;;;;;;;;;;4958938;28;20447;-67
2021/12/30 08:20:04;;;;;;;0.60;0.50;;;;;;;;;;4960244;28;20486;-66
2021/12/30 08:22:31;;;;;;;0.80;0.60;;;;;;;;;;4957848;28;20058;-65
2021/12/30 08:24:59;;;;;;;0.90;0.75;;;;;;;;;;4962640;28;20051;-65
2021/12/30 08:27:26;;;;;;;1.65;0.68;;;;;;;;;;4958429;28;20059;-65
2021/12/30 08:29:52;;;;;;;1.75;0.80;;;;;;;;;;4965439;28;20047;-66
2021/12/30 08:32:19;;;;;;;1.45;0.98;;;;;;;;;;4958591;28;20118;-65
2021/12/30 08:34:46;;;;;;;1.05;0.80;;;;;;;;;;4962465;28;20050;-67
2021/12/30 08:37:12;;;;;;;0.65;0.60;;;;;;;;;;4958585;28;20130;-66
2021/12/30 08:39:40;;;;;;;2.38;0.57;;;;;;;;;;4957882;28;20046;-67
2021/12/30 08:42:34;;;;;;;1.25;0.40;;;;;;;;;;4957316;28;20055;-67
2021/12/30 08:45:00;;;;;;;1.35;0.52;;;;;;;;;;4958947;28;20047;-66
2021/12/30 08:47:28;;;;;;;0.50;0.40;;;;;;;;;;4959497;28;20469;-65
2021/12/30 08:49:55;;;;;;;0.77;0.70;;;;;;;;;;4959214;28;20051;-65
2021/12/30 08:52:25;;;;;;;1.27;0.30;;;;;;;;;;4958979;28;20518;-66
2021/12/30 08:54:52;;;;;;;0.70;0.38;;;;;;;;;;4959795;28;20494;-65
2021/12/30 08:57:20;;;;;;;1.40;0.50;;;;;;;;;;4958101;28;20506;-65
2021/12/30 08:59:46;;;;;;;1.83;0.38;;;;;;;;;;4959696;28;20117;-67
2021/12/30 09:02:13;;;;;;;0.40;0.30;;;;;;;;;;4958066;28;20561;-65
2021/12/30 09:04:42;;;;;;;2.05;0.40;;;;;;;;;;4962159;28;20086;-67
2021/12/30 09:07:09;;;;;;;1.80;0.45;;;;;;;;;;4961809;28;20089;-67
2021/12/30 09:09:39;;;;;;;1.40;0.35;;;;;;;;;;4961148;28;20043;-65
2021/12/30 09:12:07;;;;;;;1.45;0.40;;;;;;;;;;4962513;28;20061;-66
2021/12/30 09:14:34;;;;;;;2.60;0.55;;;;;;;;;;4961688;28;20090;-65
2021/12/30 09:17:00;;;;;;;0.32;0.28;;;;;;;;;;4962082;28;20631;-67
2021/12/30 09:19:27;;;;;;;0.30;0.30;;;;;;;;;;4959835;28;20075;-67
2021/12/30 09:21:56;;;;;;;0.70;0.30;;;;;;;;;;4961476;28;20069;-68
2021/12/30 09:24:23;;;;;;;0.47;0.25;;;;;;;;;;4960699;28;20110;-68
2021/12/30 09:26:49;;;;;;;1.25;0.40;;;;;;;;;;4962795;28;20051;-67
2021/12/30 09:29:16;;;;;;;0.20;0.20;;;;;;;;;;4963567;28;20442;-67
2021/12/30 09:31:45;;;;;;;2.33;0.25;;;;;;;;;;4961080;28;20047;-67
2021/12/30 09:34:12;;;;;;;0.35;0.30;;;;;;;;;;4960699;28;20059;-66
2021/12/30 09:36:39;;;;;;;0.35;0.30;;;;;;;;;;4968603;28;20046;-67
2021/12/30 09:39:08;;;;;;;0.50;0.20;;;;;;;;;;4972734;28;20397;-68
2021/12/30 09:41:37;;;;;;;0.50;0.50;;;;;;;;;;4969208;28;20391;-67
2021/12/30 09:44:07;;;;;;;0.20;0.20;;;;;;;;;;4954067;28;20532;-68
2021/12/30 09:46:34;;;;;;;0.32;0.20;;;;;;;;;;4954664;28;20515;-67
2021/12/30 09:49:04;;;;;;;0.60;0.25;;;;;;;;;;4954472;28;20453;-67
2021/12/30 09:51:30;;;;;;;0.57;0.43;;;;;;;;;;4954432;28;20055;-67
2021/12/30 09:53:57;;;;;;;0.93;0.30;;;;;;;;;;4953603;28;20051;-67
2021/12/30 09:56:24;;;;;;;1.17;0.30;;;;;;;;;;4953856;28;20091;-67
2021/12/30 09:58:50;;;;;;;0.40;0.20;;;;;;;;;;4953670;28;20055;-67
2021/12/30 10:01:17;;;;;;;0.30;0.30;;;;;;;;;;4954099;28;20055;-67
2021/12/30 10:03:46;;;;;;;0.77;0.32;;;;;;;;;;4953413;28;20059;-67
2021/12/30 10:06:16;;;;;;;0.35;0.17;;;;;;;;;;4952383;29;20055;-67
2021/12/30 10:09:05;;;;;;;0.45;0.30;;;;;;;;;;4953305;29;20059;-67
2021/12/30 10:11:43;;;;;;;0.20;0.20;;;;;;;;;;4953487;28;20142;-68
2021/12/30 10:14:10;;;;;;;2.17;0.77;;;;;;;;;;4953502;28;20075;-67
2021/12/30 10:16:37;;;;;;;1.02;0.28;;;;;;;;;;4965349;28;20545;-66
2021/12/30 10:19:05;;;;;;;0.25;0.20;;;;;;;;;;4972720;28;20055;-67
2021/12/30 10:21:37;;;;;;;0.60;0.40;;;;;;;;;;4972374;28;20438;-68
2021/12/30 10:24:06;;;;;;;1.08;0.73;;;;;;;;;;4959293;28;20078;-67
2021/12/30 10:26:55;;;;;;;0.70;0.30;;;;;;;;;;4967738;28;20762;-65
2021/12/30 10:29:22;;;;;;;0.82;0.40;;;;;;;;;;4961049;28;20055;-65
2021/12/30 10:31:50;;;;;;;0.45;0.30;;;;;;;;;;4965572;28;20038;-65
2021/12/30 10:34:17;;;;;;;0.47;0.30;;;;;;;;;;4961126;28;20070;-66
2021/12/30 10:36:46;;;;;;;2.83;0.30;;;;;;;;;;4963819;28;20051;-65
2021/12/30 10:39:21;;;;;;;0.40;0.30;;;;;;;;;;4961845;28;20118;-65
2021/12/30 10:41:51;;;;;;;0.28;0.20;;;;;;;;;;4960630;28;20046;-65
2021/12/30 10:44:18;;;;;;;0.30;0.30;;;;;;;;;;4962462;28;20457;-69
2021/12/30 10:46:46;;;;;;;1.77;0.80;;;;;;;;;;4959586;28;20573;-70
2021/12/30 10:49:21;;;;;;;2.10;0.17;;;;;;;;;;4968708;28;20066;-70
2021/12/30 10:51:50;;;;;;;0.95;0.20;;;;;;;;;;4964025;28;20173;-70
2021/12/30 10:54:37;;;;;;;0.65;0.43;;;;;;;;;;4962891;28;20047;-68
2021/12/30 10:57:08;;;;;;;0.70;0.20;;;;;;;;;;4943002;29;20054;-71
2021/12/30 10:59:36;;;;;;;0.57;0.30;;;;;;;;;;4966319;28;20051;-72
2021/12/30 11:02:12;;;;;;;1.05;0.40;;;;;;;;;;4961333;28;20110;-70
2021/12/30 11:05:05;;;;;;;0.95;0.20;;;;;;;;;;4966900;28;20079;-69
2021/12/30 11:07:46;;;;;;;1.75;0.40;;;;;;;;;;4962897;28;20086;-71
2021/12/30 11:10:15;;;;;;;1.67;0.57;;;;;;;;;;4968964;28;20105;-72
2021/12/30 11:12:46;;;;;;;0.30;0.30;;;;;;;;;;4958922;28;20059;-70
2021/12/30 11:15:19;;;;;;;0.43;0.30;;;;;;;;;;4962430;28;20425;-67
2021/12/30 11:17:48;;;;;;;0.50;0.40;;;;;;;;;;4959570;28;20543;-68
2021/12/30 11:20:17;;;;;;;0.85;0.40;;;;;;;;;;4971028;28;20064;-68
2021/12/30 11:22:44;;;;;;;0.63;0.40;;;;;;;;;;4961825;28;20111;-69
2021/12/30 11:25:18;;;;;;;0.30;0.30;;;;;;;;;;4961751;28;20050;-68
2021/12/30 11:27:44;;;;;;;0.52;0.43;;;;;;;;;;4961141;28;20047;-68
2021/12/30 11:30:13;;;;;;;0.30;0.30;;;;;;;;;;4959207;28;20055;-68
2021/12/30 11:32:41;;;;;;;1.05;0.50;;;;;;;;;;4960042;28;20556;-69
2021/12/30 11:35:08;;;;;;;0.63;0.35;;;;;;;;;;4959449;28;20566;-69
2021/12/30 11:37:35;;;;;;;0.25;0.25;;;;;;;;;;4961945;28;20461;-67
2021/12/30 11:40:10;;;;;;;0.60;0.40;;;;;;;;;;4959945;28;20055;-69
2021/12/30 11:42:43;;;;;;;0.40;0.40;;;;;;;;;;4970501;28;20058;-68
2021/12/30 11:45:29;;;;;;;1.88;0.35;;;;;;;;;;4962281;28;20069;-67
2021/12/30 11:48:00;;;;;;;0.43;0.40;;;;;;;;;;4968446;28;20117;-68
2021/12/30 11:50:28;;;;;;;0.63;0.43;;;;;;;;;;4960427;28;20054;-69
2021/12/30 11:53:12;;;;;;;0.98;0.68;;;;;;;;;;4958181;28;20050;-67
2021/12/30 11:56:03;;;;;;;1.33;0.68;;;;;;;;;;4960856;28;20497;-67
2021/12/30 11:58:42;;;;;;;1.30;0.30;;;;;;;;;;4960792;28;20055;-69
2021/12/30 12:01:12;;;;;;;1.55;0.30;;;;;;;;;;4958949;28;20055;-68
2021/12/30 12:03:42;;;;;;;0.30;0.20;;;;;;;;;;4966571;28;20050;-68
2021/12/30 12:06:33;;;;;;;0.15;0.13;;;;;;;;;;4960379;28;20133;-68
2021/12/30 12:09:24;;;;;;;0.30;0.30;;;;;;;;;;4959013;28;20106;-67
2021/12/30 12:11:54;;;;;;;0.40;0.20;;;;;;;;;;4960480;28;20481;-67
2021/12/30 12:14:30;;;;;;;0.63;0.30;;;;;;;;;;4962037;28;20051;-69
2021/12/30 12:16:59;;;;;;;0.30;0.30;;;;;;;;;;4960614;28;20098;-67
2021/12/30 12:19:44;;;;;;;2.17;1.58;;;;;;;;;;4965120;28;20569;-68
2021/12/30 12:22:17;;;;;;;3.10;1.85;;;;;;;;;;4962949;28;20051;-69
2021/12/30 12:24:45;;;;;;;2.10;1.17;;;;;;;;;;4977719;28;20106;-70
2021/12/30 12:27:30;;;;;;;2.47;1.25;;;;;;;;;;4962561;28;20086;-67
2021/12/30 12:30:00;;;;;;;3.42;1.80;;;;;;;;;;4959094;28;20055;-65
2021/12/30 12:32:38;;;;;;;1.13;0.77;;;;;;;;;;4962731;28;20047;-65
2021/12/30 12:35:29;;;;;;;1.42;0.80;;;;;;;;;;4958794;28;20059;-67
2021/12/30 12:38:05;;;;;;;3.72;0.80;;;;;;;;;;4958534;28;20086;-67
2021/12/30 12:40:38;;;;;;;5.72;1.08;;;;;;;;;;4964420;28;20114;-67
2021/12/30 12:43:07;;;;;;;4.82;3.38;;;;;;;;;;4966197;28;20055;-66
2021/12/30 12:45:41;;;;;;;2.65;1.50;;;;;;;;;;4961908;28;20506;-67
2021/12/30 12:48:17;;;;;;;1.42;1.00;;;;;;;;;;4978109;28;20094;-67
2021/12/30 12:50:55;;;;;;;1.85;1.20;;;;;;;;;;4963500;28;20059;-67
2021/12/30 12:53:28;;;;;;;0.57;0.50;;;;;;;;;;4962126;28;20051;-67
2021/12/30 12:55:59;;;;;;;1.65;1.05;;;;;;;;;;4961947;28;20059;-67
2021/12/30 12:58:28;;;;;;;5.10;1.88;;;;;;;;;;4963145;28;20319;-66
2021/12/30 13:00:59;;;;;;;5.18;2.08;;;;;;;;;;4961708;28;20102;-67
2021/12/30 13:03:27;;;;;;;2.28;1.20;;;;;;;;;;4963800;28;20467;-67
2021/12/30 13:06:11;;;;;;;0.98;0.68;;;;;;;;;;4965045;28;20059;-67
2021/12/30 13:08:40;;;;;;;0.40;0.30;;;;;;;;;;4964956;28;20051;-67
2021/12/30 13:11:10;;;;;;;0.40;0.30;;;;;;;;;;4965242;28;20051;-67
2021/12/30 13:13:41;;;;;;;0.63;0.63;;;;;;;;;;4964190;28;20059;-67
2021/12/30 13:16:26;;;;;;;0.47;0.40;;;;;;;;;;4963613;28;20082;-66
2021/12/30 13:19:13;;;;;;;0.52;0.50;;;;;;;;;;4968567;28;20082;-67
2021/12/30 13:21:41;;;;;;;0.63;0.40;;;;;;;;;;4962746;28;20101;-67
2021/12/30 13:24:23;;;;;;;0.70;0.68;;;;;;;;;;4961891;28;20047;-67
2021/12/30 13:26:51;;;;;;;0.57;0.30;;;;;;;;;;4973684;28;20101;-66
2021/12/30 13:29:39;;;;;;;0.30;0.30;;;;;;;;;;4961977;28;20056;-67
2021/12/30 13:32:12;;;;;;;0.32;0.20;;;;;;;;;;4962134;28;20504;-67
2021/12/30 13:35:03;;;;;;;0.50;0.40;;;;;;;;;;4960962;28;20145;-66
2021/12/30 13:37:38;;;;;;;0.85;0.30;;;;;;;;;;4963337;28;20090;-66
2021/12/30 13:40:15;;;;;;;0.40;0.20;;;;;;;;;;4963311;28;20486;-66
2021/12/30 13:42:47;;;;;;;0.30;0.10;;;;;;;;;;4961242;28;20110;-66
2021/12/30 13:45:13;;;;;;;0.30;0.22;;;;;;;;;;4961235;28;20117;-67
2021/12/30 13:47:40;;;;;;;0.28;0.15;;;;;;;;;;4963825;28;20051;-67
2021/12/30 13:50:11;;;;;;;2.83;0.30;;;;;;;;;;4962441;28;20097;-67
2021/12/30 13:52:40;;;;;;;0.63;0.15;;;;;;;;;;4961504;28;20297;-66
2021/12/30 13:55:08;;;;;;;0.20;0.20;;;;;;;;;;4973135;28;20054;-67
2021/12/30 13:57:35;;;;;;;0.35;0.20;;;;;;;;;;4964231;28;20062;-67
2021/12/30 14:00:04;;;;;;;0.90;0.17;;;;;;;;;;4961190;28;20098;-67
2021/12/30 14:02:31;;;;;;;0.47;0.10;;;;;;;;;;4962611;28;20066;-66
2021/12/30 14:05:14;;;;;;;0.10;0.10;;;;;;;;;;4961203;28;20488;-67
2021/12/30 14:07:47;;;;;;;0.30;0.20;;;;;;;;;;4963993;28;20043;-66
2021/12/30 14:10:14;;;;;;;0.90;0.65;;;;;;;;;;4963008;28;20058;-66
2021/12/30 14:13:02;;;;;;;0.35;0.20;;;;;;;;;;4962993;28;20095;-67
2021/12/30 14:15:33;;;;;;;0.50;0.20;;;;;;;;;;4963016;28;20078;-67
2021/12/30 14:18:09;;;;;;;1.80;0.40;;;;;;;;;;4964012;28;20376;-67
2021/12/30 14:20:37;;;;;;;0.13;0.10;;;;;;;;;;4963275;28;20054;-66
2021/12/30 14:23:04;;;;;;;0.13;0.10;;;;;;;;;;4961273;28;20059;-66
2021/12/30 14:25:34;;;;;;;0.60;0.40;;;;;;;;;;4965417;28;20105;-67
2021/12/30 14:28:17;;;;;;;0.65;0.40;;;;;;;;;;4962383;28;20111;-67
2021/12/30 14:30:43;;;;;;;1.27;0.30;;;;;;;;;;4964262;28;20105;-66
2021/12/30 14:33:19;;;;;;;1.13;0.40;;;;;;;;;;4961338;28;20058;-67
2021/12/30 14:35:46;;;;;;;0.70;0.45;;;;;;;;;;4958680;28;20055;-66
2021/12/30 14:38:26;;;;;;;1.83;1.23;;;;;;;;;;4969548;28;20565;-66
2021/12/30 14:41:25;;;;;;;2.17;1.15;;;;;;;;;;4954883;28;20051;-66
2021/12/30 14:44:09;;;;;;;1.55;0.93;;;;;;;;;;4964002;28;20047;-67
2021/12/30 14:46:43;;;;;;;1.02;0.75;;;;;;;;;;4955203;28;20059;-67
2021/12/30 14:49:17;;;;;;;2.63;1.40;;;;;;;;;;4953552;29;20054;-67
2021/12/30 14:51:44;;;;;;;1.85;0.95;;;;;;;;;;4954901;28;20051;-66
2021/12/30 14:54:13;;;;;;;4.63;2.22;;;;;;;;;;4954899;28;20106;-67
2021/12/30 14:56:41;;;;;;;9.38;6.80;;;;;;;;;;4954690;28;20051;-66
2021/12/30 14:59:09;;;;;;;7.40;5.47;;;;;;;;;;4954674;28;20083;-67